createdAt,value
2022-08-03T00:02:19.599Z,2.00
2022-08-03T00:04:49.187Z,2.38
2022-08-03T00:07:16.665Z,2.30
2022-08-03T00:09:46.586Z,2.40
2022-08-03T00:12:13.879Z,2.08
2022-08-03T00:14:41.371Z,2.30
2022-08-03T00:17:09.146Z,2.30
2022-08-03T00:19:36.022Z,2.35
2022-08-03T00:22:03.087Z,2.35
2022-08-03T00:24:33.309Z,2.10
2022-08-03T00:27:00.309Z,2.40
2022-08-03T00:29:27.450Z,2.65
2022-08-03T00:31:59.593Z,2.40
2022-08-03T00:34:57.528Z,3.05
2022-08-03T00:37:20.334Z,2.60
2022-08-03T00:39:48.128Z,2.22
2022-08-03T00:42:17.775Z,2.40
2022-08-03T00:44:45.592Z,2.60
2022-08-03T00:47:13.309Z,2.40
2022-08-03T00:49:41.420Z,2.63
2022-08-03T00:52:10.655Z,2.40
2022-08-03T00:54:38.922Z,2.70
2022-08-03T00:57:07.408Z,2.00
2022-08-03T00:59:34.835Z,2.53
2022-08-03T01:02:01.815Z,2.20
2022-08-03T01:04:28.801Z,2.35
2022-08-03T01:07:10.696Z,2.35
2022-08-03T01:10:04.118Z,2.03
2022-08-03T01:12:43.408Z,2.20
2022-08-03T01:15:21.930Z,2.35
2022-08-03T01:18:27.668Z,2.30
2022-08-03T01:20:58.914Z,2.20
2022-08-03T01:23:48.128Z,2.22
2022-08-03T01:26:16.820Z,2.53
2022-08-03T01:29:10.031Z,2.50
2022-08-03T01:32:53.251Z,2.40
2022-08-03T01:34:36.870Z,2.45
2022-08-03T01:37:07.907Z,2.90
2022-08-03T01:39:41.279Z,2.60
2022-08-03T01:42:12.437Z,2.25
2022-08-03T01:44:43.231Z,2.50
2022-08-03T01:47:12.967Z,2.45
2022-08-03T01:49:45.404Z,2.85
2022-08-03T01:52:17.913Z,2.97
2022-08-03T01:54:48.862Z,3.13
2022-08-03T01:57:32.927Z,3.10
2022-08-03T02:00:20.984Z,3.47
2022-08-03T02:02:52.762Z,3.95
2022-08-03T02:05:27.813Z,3.38
2022-08-03T02:07:59.291Z,3.30
2022-08-03T02:10:34.962Z,3.05
2022-08-03T02:13:08.653Z,3.55
2022-08-03T02:15:38.548Z,3.17
2022-08-03T02:18:11.491Z,3.45
2022-08-03T02:20:40.850Z,3.40
2022-08-03T02:23:09.830Z,3.42
2022-08-03T02:25:45.182Z,3.60
2022-08-03T02:28:20.163Z,3.53
2022-08-03T02:30:55.841Z,3.88
2022-08-03T02:33:29.144Z,3.42
2022-08-03T02:36:01.870Z,3.63
2022-08-03T02:38:36.806Z,3.92
2022-08-03T02:41:14.188Z,3.30
2022-08-03T02:44:06.486Z,3.40
2022-08-03T02:46:43.440Z,3.75
2022-08-03T02:49:34.972Z,3.83
2022-08-03T02:52:13.091Z,4.25
2022-08-03T02:54:42.314Z,3.88
2022-08-03T02:57:13.289Z,3.50
2022-08-03T02:59:43.006Z,4.50
2022-08-03T03:02:12.767Z,4.00
2022-08-03T03:04:59.700Z,4.00
2022-08-03T03:07:51.182Z,4.30
2022-08-03T03:10:24.894Z,3.90
2022-08-03T03:12:57.555Z,4.60
2022-08-03T03:15:31.797Z,4.60
2022-08-03T03:18:03.686Z,4.68
2022-08-03T03:20:36.107Z,4.63
2022-08-03T03:23:05.331Z,4.65
2022-08-03T03:25:34.637Z,4.55
2022-08-03T03:28:04.149Z,4.70
2022-08-03T03:30:35.362Z,4.72
2022-08-03T03:33:03.543Z,4.68
2022-08-03T03:35:31.563Z,4.57
2022-08-03T03:40:37.467Z,4.85
2022-08-03T03:43:10.226Z,4.28
2022-08-03T03:45:38.498Z,4.80
2022-08-03T03:48:09.082Z,4.53
2022-08-03T03:50:41.030Z,4.45
2022-08-03T03:53:13.383Z,4.70
2022-08-03T03:55:59.254Z,4.93
2022-08-03T03:58:28.384Z,5.03
2022-08-03T04:00:56.021Z,4.68
2022-08-03T04:03:24.637Z,5.25
2022-08-03T04:06:11.752Z,4.63
2022-08-03T04:08:59.405Z,4.60
2022-08-03T04:11:32.172Z,4.55
2022-08-03T04:14:08.249Z,4.35
2022-08-03T04:16:43.659Z,4.57
2022-08-03T04:19:24.973Z,4.22
2022-08-03T04:21:57.379Z,4.20
2022-08-03T04:24:28.223Z,4.82
2022-08-03T04:26:57.690Z,4.57
2022-08-03T04:29:26.880Z,4.07
2022-08-03T04:31:56.294Z,4.22
2022-08-03T04:34:29.034Z,3.75
2022-08-03T04:37:01.741Z,4.00
2022-08-03T04:39:35.007Z,4.25
2022-08-03T04:42:09.776Z,3.65
2022-08-03T04:44:41.679Z,3.90
2022-08-03T04:47:13.563Z,3.67
2022-08-03T04:49:41.209Z,4.30
2022-08-03T04:52:12.668Z,4.45
2022-08-03T04:54:45.818Z,3.90
2022-08-03T04:57:23.211Z,3.60
2022-08-03T05:00:01.423Z,3.80
2022-08-03T05:02:32.128Z,3.85
2022-08-03T05:05:00.675Z,3.80
2022-08-03T05:07:35.417Z,4.07
2022-08-03T05:10:15.060Z,3.75
2022-08-03T05:12:48.984Z,3.97
2022-08-03T05:15:16.400Z,4.07
2022-08-03T05:17:43.958Z,3.75
2022-08-03T05:20:12.088Z,4.18
2022-08-03T05:22:41.901Z,3.75
2022-08-03T05:25:09.152Z,3.85
2022-08-03T05:27:37.014Z,3.20
2022-08-03T05:30:29.772Z,3.00
2022-08-03T05:32:53.546Z,3.08
2022-08-03T05:35:57.286Z,3.35
2022-08-03T05:38:07.635Z,3.28
2022-08-03T05:40:36.867Z,2.88
2022-08-03T05:43:05.327Z,2.92
2022-08-03T05:45:33.033Z,3.22
2022-08-03T05:48:03.679Z,2.90
2022-08-03T05:50:30.886Z,3.13
2022-08-03T05:52:58.060Z,3.15
2022-08-03T05:55:25.791Z,3.03
2022-08-03T05:57:52.966Z,3.03
2022-08-03T06:00:24.307Z,2.88
2022-08-03T06:02:52.907Z,3.40
2022-08-03T06:05:19.936Z,3.10
2022-08-03T06:07:47.190Z,2.72
2022-08-03T06:10:36.427Z,3.13
2022-08-03T06:13:01.412Z,3.08
2022-08-03T06:15:28.559Z,2.90
2022-08-03T06:18:01.508Z,3.05
2022-08-03T06:20:31.498Z,3.08
2022-08-03T06:23:02.925Z,3.30
2022-08-03T06:25:32.613Z,2.60
2022-08-03T06:28:00.694Z,3.38
2022-08-03T06:30:28.089Z,2.88
2022-08-03T06:32:55.844Z,2.95
2022-08-03T06:35:23.832Z,2.80
2022-08-03T06:37:52.072Z,2.58
2022-08-03T06:40:28.835Z,2.38
2022-08-03T06:42:59.872Z,2.70
2022-08-03T06:45:31.821Z,2.72
2022-08-03T06:48:15.431Z,2.45
2022-08-03T06:50:44.776Z,1.80
2022-08-03T06:53:19.874Z,2.05
2022-08-03T06:55:53.867Z,1.92
2022-08-03T06:58:21.436Z,2.10
2022-08-03T07:00:48.556Z,1.98
2022-08-03T07:03:16.862Z,1.85
2022-08-03T07:05:46.948Z,1.80
2022-08-03T07:08:14.980Z,1.83
2022-08-03T07:10:42.764Z,2.22
2022-08-03T07:13:10.732Z,1.85
2022-08-03T07:15:55.421Z,1.92
2022-08-03T07:18:29.959Z,1.42
2022-08-03T07:21:00.056Z,1.52
2022-08-03T07:23:27.331Z,1.92
2022-08-03T07:25:54.329Z,1.90
2022-08-03T07:28:21.369Z,1.85
2022-08-03T07:30:48.600Z,1.50
2022-08-03T07:33:15.805Z,2.30
2022-08-03T07:35:43.251Z,1.90
2022-08-03T07:38:11.134Z,2.10
2022-08-03T07:40:44.442Z,1.80
2022-08-03T07:43:13.495Z,1.88
2022-08-03T07:45:40.609Z,1.58
2022-08-03T07:48:12.157Z,1.88
2022-08-03T07:50:39.848Z,1.90
2022-08-03T07:53:09.171Z,1.90
2022-08-03T07:55:36.530Z,2.10
2022-08-03T07:58:16.516Z,2.00
2022-08-03T08:00:47.464Z,2.10
2022-08-03T08:03:14.757Z,1.98
2022-08-03T08:05:41.773Z,1.92
2022-08-03T08:08:11.181Z,1.92
2022-08-03T08:10:41.536Z,1.80
2022-08-03T08:13:08.648Z,1.70
2022-08-03T08:15:35.814Z,1.90
2022-08-03T08:18:10.164Z,1.73
2022-08-03T08:20:40.183Z,1.60
2022-08-03T08:23:40.834Z,1.60
2022-08-03T08:25:57.017Z,1.60
2022-08-03T08:28:30.220Z,1.83
2022-08-03T08:31:01.586Z,1.80
2022-08-03T08:33:37.620Z,1.80
2022-08-03T08:36:15.822Z,1.63
2022-08-03T08:38:45.133Z,1.60
2022-08-03T08:41:13.943Z,1.42
2022-08-03T08:43:42.163Z,1.40
2022-08-03T08:46:13.153Z,1.50
2022-08-03T08:48:52.070Z,1.40
2022-08-03T08:51:24.538Z,1.23
2022-08-03T08:54:12.907Z,1.40
2022-08-03T08:56:40.020Z,1.30
2022-08-03T08:59:07.654Z,1.20
2022-08-03T09:01:34.970Z,1.50
2022-08-03T09:04:02.784Z,1.63
2022-08-03T09:06:29.937Z,1.73
2022-08-03T09:08:57.274Z,2.00
2022-08-03T09:11:53.355Z,1.88
2022-08-03T09:14:35.322Z,1.80
2022-08-03T09:17:03.180Z,1.50
2022-08-03T09:19:32.140Z,1.70
2022-08-03T09:22:10.962Z,1.83
2022-08-03T09:24:43.486Z,1.85
2022-08-03T09:27:17.192Z,1.80
2022-08-03T09:29:52.295Z,2.08
2022-08-03T09:32:24.581Z,2.13
2022-08-03T09:34:57.819Z,1.80
2022-08-03T09:38:12.702Z,1.85
2022-08-03T09:40:36.681Z,1.83
2022-08-03T09:43:03.639Z,1.83
2022-08-03T09:45:30.966Z,1.80
2022-08-03T09:48:29.604Z,1.65
2022-08-03T09:51:13.111Z,1.48
2022-08-03T09:53:59.143Z,1.88
2022-08-03T09:56:45.737Z,1.45
2022-08-03T09:59:22.942Z,1.30
2022-08-03T10:01:50.153Z,1.60
2022-08-03T10:04:17.262Z,1.40
2022-08-03T10:07:06.280Z,1.48
2022-08-03T10:09:33.727Z,1.48
2022-08-03T10:12:09.068Z,1.50
2022-08-03T10:14:42.033Z,1.42
2022-08-03T10:17:12.326Z,1.55
2022-08-03T10:19:41.345Z,1.40
2022-08-03T10:22:14.845Z,1.60
2022-08-03T10:25:18.191Z,1.60
2022-08-03T10:27:51.732Z,1.65
2022-08-03T10:30:19.208Z,1.40
2022-08-03T10:33:00.119Z,1.38
2022-08-03T10:35:27.333Z,1.45
2022-08-03T10:38:12.554Z,1.38
2022-08-03T10:40:48.575Z,1.30
2022-08-03T10:43:31.723Z,3.20
2022-08-03T10:46:03.150Z,2.00
2022-08-03T10:48:33.119Z,1.50
2022-08-03T10:51:00.343Z,2.90
2022-08-03T10:53:42.479Z,1.73
2022-08-03T10:56:54.439Z,1.50
2022-08-03T10:59:49.594Z,1.23
2022-08-03T11:02:19.152Z,2.47
2022-08-03T11:04:46.910Z,2.70
2022-08-03T11:07:27.317Z,1.48
2022-08-03T11:09:58.487Z,1.27
2022-08-03T11:12:31.462Z,1.33
2022-08-03T11:15:06.758Z,1.60
2022-08-03T11:17:46.746Z,1.55
2022-08-03T11:20:48.345Z,1.42
2022-08-03T11:23:17.093Z,1.42
2022-08-03T11:26:12.504Z,1.52
2022-08-03T11:28:40.513Z,1.20
2022-08-03T11:31:48.006Z,1.35
2022-08-03T11:34:11.854Z,1.27
2022-08-03T11:37:16.908Z,1.25
2022-08-03T11:42:22.139Z,1.10
2022-08-03T11:44:57.409Z,1.25
2022-08-03T11:47:29.927Z,1.20
2022-08-03T11:50:02.191Z,1.33
2022-08-03T11:52:38.855Z,1.40
2022-08-03T11:55:11.275Z,1.70
2022-08-03T11:59:01.719Z,1.40
2022-08-03T12:00:34.748Z,1.42
2022-08-03T12:03:09.475Z,1.23
2022-08-03T12:05:51.759Z,1.30
2022-08-03T12:08:40.845Z,1.10
2022-08-03T12:11:12.077Z,1.30
2022-08-03T12:14:45.213Z,1.20
2022-08-03T12:16:32.478Z,1.40
2022-08-03T12:19:01.988Z,1.45
2022-08-03T12:21:30.159Z,1.17
2022-08-03T12:24:03.046Z,1.75
2022-08-03T12:26:58.518Z,1.58
2022-08-03T12:31:53.765Z,1.55
2022-08-03T12:34:20.982Z,1.30
2022-08-03T12:36:57.837Z,1.58
2022-08-03T12:39:28.006Z,1.67
2022-08-03T12:41:56.263Z,1.70
2022-08-03T12:44:33.959Z,1.52
2022-08-03T12:47:02.867Z,1.50
2022-08-03T12:49:45.822Z,1.80
2022-08-03T12:52:13.154Z,1.42
2022-08-03T12:54:40.408Z,1.42
2022-08-03T12:57:10.508Z,1.40
2022-08-03T12:59:49.875Z,1.50
2022-08-03T13:02:26.260Z,1.30
2022-08-03T13:04:54.802Z,1.50
2022-08-03T13:07:25.123Z,1.30
2022-08-03T13:09:54.545Z,1.55
2022-08-03T13:12:24.549Z,1.63
2022-08-03T13:15:01.103Z,1.20
2022-08-03T13:17:28.665Z,1.35
2022-08-03T13:19:56.468Z,1.40
2022-08-03T13:22:33.053Z,1.23
2022-08-03T13:25:03.198Z,1.23
2022-08-03T13:28:04.930Z,1.30
2022-08-03T13:30:24.967Z,1.45
2022-08-03T13:32:58.806Z,1.38
2022-08-03T13:35:26.337Z,1.45
2022-08-03T13:37:53.532Z,1.30
2022-08-03T13:40:23.603Z,1.60
2022-08-03T13:42:51.090Z,1.20
2022-08-03T13:45:18.070Z,1.40
2022-08-03T13:47:47.558Z,1.58
2022-08-03T13:50:15.434Z,1.55
2022-08-03T13:52:46.321Z,1.45
2022-08-03T13:55:16.620Z,1.70
2022-08-03T13:58:04.731Z,1.70
2022-08-03T14:00:31.162Z,1.20
2022-08-03T14:03:13.639Z,1.35
2022-08-03T14:05:42.507Z,1.52
2022-08-03T14:08:10.266Z,1.35
2022-08-03T14:10:40.355Z,1.02
2022-08-03T14:13:08.782Z,1.35
2022-08-03T14:15:37.808Z,1.42
2022-08-03T14:18:15.398Z,1.48
2022-08-03T14:20:49.110Z,1.60
2022-08-03T14:23:18.998Z,1.60
2022-08-03T14:25:52.509Z,1.80
2022-08-03T14:28:24.060Z,1.25
2022-08-03T14:30:53.906Z,1.65
2022-08-03T14:33:24.190Z,1.80
2022-08-03T14:35:56.906Z,1.55
2022-08-03T14:38:24.705Z,1.30
2022-08-03T14:40:53.139Z,1.63
2022-08-03T14:43:22.844Z,1.38
2022-08-03T14:45:53.753Z,1.40
2022-08-03T14:50:30.563Z,1.50
2022-08-03T14:51:10.302Z,1.38
2022-08-03T14:53:39.706Z,1.40
2022-08-03T14:56:10.498Z,1.98
2022-08-03T14:58:38.710Z,1.58
2022-08-03T15:02:05.332Z,1.67
2022-08-03T15:03:54.719Z,1.55
2022-08-03T15:06:24.465Z,1.35
2022-08-03T15:09:21.737Z,1.80
2022-08-03T15:11:42.004Z,1.60
2022-08-03T15:14:09.643Z,1.50
2022-08-03T15:16:37.806Z,1.58
2022-08-03T15:20:00.218Z,1.27
2022-08-03T15:21:52.728Z,1.23
2022-08-03T15:24:20.645Z,1.58
2022-08-03T15:26:48.730Z,1.55
2022-08-03T15:30:07.176Z,1.40
2022-08-03T15:32:06.128Z,1.40
2022-08-03T15:34:36.101Z,1.60
2022-08-03T15:37:04.331Z,1.60
2022-08-03T15:39:58.902Z,1.85
2022-08-03T15:42:32.671Z,1.30
2022-08-03T15:45:02.519Z,1.40
2022-08-03T15:47:29.981Z,1.63
2022-08-03T15:49:58.950Z,1.80
2022-08-03T15:52:25.921Z,1.50
2022-08-03T15:54:55.458Z,1.42
2022-08-03T15:57:22.958Z,1.48
2022-08-03T15:59:50.251Z,1.40
2022-08-03T16:02:20.085Z,1.35
2022-08-03T16:04:47.313Z,1.85
2022-08-03T16:07:15.901Z,1.70
2022-08-03T16:09:44.065Z,1.40
2022-08-03T16:12:15.425Z,1.52
2022-08-03T16:14:52.364Z,1.50
2022-08-03T16:17:20.574Z,1.58
2022-08-03T16:19:48.087Z,1.60
2022-08-03T16:22:15.195Z,1.20
2022-08-03T16:24:42.392Z,1.50
2022-08-03T16:27:25.040Z,1.30
2022-08-03T16:29:59.095Z,1.73
2022-08-03T16:32:26.090Z,1.40
2022-08-03T16:34:53.085Z,1.58
2022-08-03T16:37:38.316Z,1.40
2022-08-03T16:40:17.460Z,1.40
2022-08-03T16:42:47.541Z,1.75
2022-08-03T16:45:14.621Z,1.70
2022-08-03T16:47:41.816Z,1.52
2022-08-03T16:50:18.960Z,1.50
2022-08-03T16:52:47.264Z,1.33
2022-08-03T16:55:49.022Z,1.50
2022-08-03T16:58:07.460Z,1.67
2022-08-03T17:00:41.259Z,1.30
2022-08-03T17:03:12.583Z,1.80
2022-08-03T17:05:52.932Z,1.23
2022-08-03T17:08:26.807Z,1.27
2022-08-03T17:10:55.850Z,1.10
2022-08-03T17:13:38.794Z,1.48
2022-08-03T17:16:09.576Z,1.35
2022-08-03T17:18:47.567Z,1.80
2022-08-03T17:21:16.183Z,1.40
2022-08-03T17:23:50.421Z,1.70
2022-08-03T17:26:21.982Z,1.40
2022-08-03T17:28:58.168Z,1.20
2022-08-03T17:31:31.312Z,1.60
2022-08-03T17:34:01.817Z,1.33
2022-08-03T17:36:53.970Z,1.77
2022-08-03T17:39:17.945Z,1.50
2022-08-03T17:41:49.974Z,1.30
2022-08-03T17:44:35.116Z,1.45
2022-08-03T17:47:06.671Z,1.70
2022-08-03T17:49:40.183Z,1.50
2022-08-03T17:52:20.171Z,1.70
2022-08-03T17:55:55.335Z,1.55
2022-08-03T17:58:17.026Z,1.50
2022-08-03T18:01:57.530Z,1.40
2022-08-03T18:06:31.683Z,1.73
2022-08-03T18:09:00.156Z,1.63
2022-08-03T18:11:35.601Z,1.92
2022-08-03T18:14:29.508Z,2.03
2022-08-03T18:17:01.678Z,2.00
2022-08-03T18:20:03.506Z,1.48
2022-08-03T18:22:20.770Z,2.00
2022-08-03T18:24:52.744Z,1.83
2022-08-03T18:27:21.075Z,2.10
2022-08-03T18:29:52.026Z,1.73
2022-08-03T18:32:19.103Z,1.50
2022-08-03T18:34:53.652Z,2.00
2022-08-03T18:37:25.098Z,2.17
2022-08-03T18:39:55.927Z,1.90
2022-08-03T18:42:26.952Z,1.80
2022-08-03T18:44:56.310Z,1.92
2022-08-03T18:47:50.601Z,1.92
2022-08-03T18:50:34.092Z,2.20
2022-08-03T18:54:04.089Z,2.35
2022-08-03T18:56:31.578Z,2.20
2022-08-03T18:59:10.173Z,2.40
2022-08-03T19:04:49.802Z,2.30
2022-08-03T19:07:23.320Z,2.58
2022-08-03T19:09:55.844Z,2.25
2022-08-03T19:12:33.866Z,2.20
2022-08-03T19:15:10.375Z,2.55
2022-08-03T19:17:52.861Z,2.25
2022-08-03T19:20:35.245Z,2.35
2022-08-03T19:23:06.668Z,2.33
2022-08-03T19:25:38.670Z,2.30
2022-08-03T19:28:09.009Z,2.03
2022-08-03T19:30:39.431Z,2.00
2022-08-03T19:33:13.002Z,2.20
2022-08-03T19:35:55.355Z,2.00
2022-08-03T19:38:28.516Z,1.92
2022-08-03T19:41:03.222Z,2.40
2022-08-03T19:43:53.330Z,2.47
2022-08-03T19:46:30.076Z,2.40
2022-08-03T19:49:03.716Z,2.40
2022-08-03T19:52:02.267Z,2.67
2022-08-03T19:54:29.835Z,2.40
2022-08-03T19:57:02.902Z,2.17
2022-08-03T19:59:39.173Z,2.08
2022-08-03T20:02:26.034Z,2.30
2022-08-03T20:04:57.304Z,2.00
2022-08-03T20:07:26.431Z,2.42
2022-08-03T20:09:56.427Z,2.40
2022-08-03T20:12:47.748Z,2.03
2022-08-03T20:15:18.054Z,1.90
2022-08-03T20:17:54.297Z,2.13
2022-08-03T20:20:26.451Z,1.90
2022-08-03T20:22:57.529Z,1.85
2022-08-03T20:25:37.900Z,2.28
2022-08-03T20:28:26.638Z,2.20
2022-08-03T20:30:54.303Z,2.17
2022-08-03T20:33:27.607Z,2.17
2022-08-03T20:35:55.125Z,2.28
2022-08-03T20:38:27.274Z,2.03
2022-08-03T20:40:59.075Z,2.08
2022-08-03T20:43:30.727Z,2.25
2022-08-03T20:46:32.789Z,2.10
2022-08-03T20:48:48.977Z,2.33
2022-08-03T20:54:23.022Z,2.00
2022-08-03T20:57:04.107Z,2.30
2022-08-03T21:02:30.140Z,2.05
2022-08-03T21:05:03.672Z,2.50
2022-08-03T21:08:05.217Z,2.35
2022-08-03T21:10:41.952Z,2.20
2022-08-03T21:13:11.154Z,2.40
2022-08-03T21:13:12.545Z,2.30
2022-08-03T21:13:23.623Z,2.30
2022-08-03T21:16:06.861Z,2.05
2022-08-03T21:18:46.097Z,2.40
2022-08-03T21:21:15.992Z,2.38
2022-08-03T21:23:47.895Z,2.70
2022-08-03T21:26:25.444Z,2.38
2022-08-03T21:28:55.650Z,2.35
2022-08-03T21:31:25.171Z,2.05
2022-08-03T21:33:55.582Z,2.08
2022-08-03T21:36:30.375Z,2.35
2022-08-03T21:39:01.062Z,2.17
2022-08-03T21:41:31.409Z,2.03
2022-08-03T21:44:00.335Z,2.20
2022-08-03T21:46:34.108Z,2.38
2022-08-03T21:50:04.390Z,2.30
2022-08-03T21:51:59.643Z,2.10
2022-08-03T21:54:35.283Z,2.15
2022-08-03T21:59:37.172Z,1.98
2022-08-03T22:02:04.694Z,2.30
2022-08-03T22:04:50.302Z,2.72
2022-08-03T22:07:23.462Z,2.50
2022-08-03T22:09:58.398Z,2.38
2022-08-03T22:12:31.377Z,2.05
2022-08-03T22:15:03.567Z,2.10
2022-08-03T22:17:55.487Z,2.30
2022-08-03T22:20:22.920Z,2.55
2022-08-03T22:22:55.729Z,2.30
2022-08-03T22:25:29.314Z,2.30
2022-08-03T22:27:58.912Z,2.45
2022-08-03T22:30:26.007Z,2.47
2022-08-03T22:32:56.409Z,2.33
2022-08-03T22:35:26.068Z,2.22
2022-08-03T22:37:55.305Z,2.22
2022-08-03T22:40:22.491Z,2.47
2022-08-03T22:42:50.648Z,2.75
2022-08-03T22:46:05.992Z,2.15
2022-08-03T22:48:08.791Z,2.05
2022-08-03T22:50:35.995Z,2.25
2022-08-03T22:53:03.375Z,2.28
2022-08-03T22:55:31.225Z,2.42
2022-08-03T22:57:58.471Z,4.30
2022-08-03T23:00:25.820Z,2.55
2022-08-03T23:02:56.927Z,3.42
2022-08-03T23:06:02.060Z,4.20
2022-08-03T23:08:21.789Z,4.15
2022-08-03T23:10:50.648Z,3.92
2022-08-03T23:13:19.240Z,4.03
2022-08-03T23:15:55.224Z,3.72
2022-08-03T23:18:24.219Z,3.78
2022-08-03T23:20:58.716Z,4.00
2022-08-03T23:23:26.922Z,4.20
2022-08-03T23:25:54.365Z,3.35
2022-08-03T23:28:21.854Z,2.88
2022-08-03T23:30:50.873Z,2.95
2022-08-03T23:33:18.626Z,5.22
2022-08-03T23:36:29.698Z,6.13
2022-08-03T23:38:46.093Z,6.35
2022-08-03T23:41:18.733Z,7.28
2022-08-03T23:43:52.024Z,4.32
2022-08-03T23:46:24.488Z,3.95
2022-08-03T23:48:56.544Z,3.25
2022-08-03T23:51:48.662Z,5.97
2022-08-03T23:54:24.287Z,3.70
2022-08-03T23:59:48.954Z,4.32
